EFET

Enontekio Airport

Enontekio, Finland
METAR EFET 201320Z AUTO 19002KT 1400 BR OVC002 00/00 Q1012
Observed Flight Rules
Oct-20 @ 13:20 UTC (14 minutes ago) Instrument Flight Rules
Wind Visibility Clouds Conditions
190° at 2 knots 1,400 meters
  • Overcast at 200' AGL
  • Mist
Temperatures Readings
Current 0°C / 32°F
Dewpoint 0°C / 32°F
Humidity 100%
Altimeter 29.88" Hg
Pressure 1012 hPa
Elevation 306
METAR EFET 201320Z AUTO 19002KT 1400 BR OVC002 00/00 Q1012
Observed Flight Rules
Oct-20 @ 13:20 UTC
(14 minutes ago)
LIFR
Wind Visibility
190° at 2 knots 1,400 meters
Clouds
  • Overcast at 200' AGL
Conditions
  • Mist
Temperature Dewpoint
0°C / 32°F 0°C / 32°F
Humidity Altimeter Pressure
100% 29.88" Hg 1012 hPa